createdAt,value
2023-03-27T04:17:15.638Z,100.00
2023-03-27T04:20:30.257Z,98.96
2023-03-27T04:23:45.389Z,99.74
2023-03-27T04:27:01.438Z,99.09
2023-03-27T04:30:16.021Z,99.34
2023-03-27T04:33:31.821Z,97.55
2023-03-27T04:36:46.059Z,97.50
2023-03-27T04:40:00.608Z,97.08
2023-03-27T04:43:14.944Z,96.79
2023-03-27T04:46:29.324Z,96.08
2023-03-27T04:49:46.969Z,96.46
2023-03-27T04:53:02.263Z,96.24
2023-03-27T04:56:16.534Z,96.50
2023-03-27T04:59:32.248Z,96.50
2023-03-27T05:02:46.890Z,96.98
2023-03-27T05:06:08.312Z,96.16
2023-03-27T05:09:39.446Z,94.53
2023-03-27T05:13:07.148Z,94.32
2023-03-27T05:16:22.976Z,95.63
2023-03-27T05:19:41.479Z,95.77
2023-03-27T05:23:02.371Z,94.60
2023-03-27T05:30:04.864Z,95.58
2023-03-27T05:33:26.567Z,95.20
2023-03-27T05:36:57.933Z,96.32
2023-03-27T05:40:37.625Z,96.37
2023-03-27T05:44:23.887Z,96.23
2023-03-27T05:48:03.277Z,95.33
2023-03-27T05:51:36.966Z,94.17
2023-03-27T05:59:02.203Z,96.12
2023-03-27T06:02:40.463Z,95.89
2023-03-27T06:06:21.793Z,96.28
2023-03-27T06:10:16.159Z,95.86
2023-03-27T06:14:02.713Z,94.87
2023-03-27T06:17:21.137Z,96.16
2023-03-27T06:24:38.889Z,97.30
2023-03-27T06:28:01.090Z,95.28
2023-03-27T06:31:51.985Z,97.36
2023-03-27T06:39:20.912Z,97.33
2023-03-27T06:46:45.215Z,97.45
2023-03-27T06:50:26.424Z,97.74
2023-03-27T06:53:51.302Z,97.71
2023-03-27T06:57:25.879Z,96.32
2023-03-27T07:00:42.124Z,96.27
2023-03-27T07:04:25.135Z,95.58
2023-03-27T07:08:15.132Z,95.99
2023-03-27T07:12:03.907Z,96.11
2023-03-27T07:15:21.982Z,94.41
2023-03-27T07:18:46.096Z,95.52
2023-03-27T07:22:30.578Z,96.08
2023-03-27T07:29:39.958Z,95.78
2023-03-27T07:33:00.414Z,95.10
2023-03-27T07:36:21.580Z,94.85
2023-03-27T07:39:36.751Z,94.16
2023-03-27T07:43:28.530Z,94.72
2023-03-27T07:50:23.275Z,92.72
2023-03-27T07:53:43.791Z,94.18
2023-03-27T07:57:10.113Z,94.79
2023-03-27T08:00:53.696Z,96.08
2023-03-27T08:04:21.741Z,94.53
2023-03-27T08:07:44.560Z,94.17
2023-03-27T08:11:42.253Z,93.77
2023-03-27T08:15:26.008Z,93.77
2023-03-27T08:19:32.579Z,94.60
2023-03-27T08:23:07.992Z,94.95
2023-03-27T08:26:23.839Z,93.97
2023-03-27T08:29:53.217Z,94.20
2023-03-27T08:33:22.753Z,94.12
2023-03-27T08:37:08.565Z,94.64
2023-03-27T08:40:38.712Z,95.28
2023-03-27T08:44:01.296Z,94.31
2023-03-27T08:47:40.825Z,95.66
2023-03-27T08:54:59.298Z,94.44
2023-03-27T08:58:28.462Z,94.15
2023-03-27T09:02:33.997Z,94.16
2023-03-27T09:06:23.296Z,94.28
2023-03-27T09:10:02.601Z,94.81
2023-03-27T09:13:49.225Z,95.60
2023-03-27T09:18:00.334Z,95.29
2023-03-27T09:21:24.800Z,95.72
2023-03-27T09:25:12.478Z,95.19
2023-03-27T09:28:40.069Z,95.50
2023-03-27T09:32:10.582Z,94.95
2023-03-27T09:35:25.747Z,95.91
2023-03-27T09:38:43.484Z,95.18
2023-03-27T09:42:11.252Z,95.38
2023-03-27T09:45:37.856Z,95.90
2023-03-27T09:49:21.594Z,96.29
2023-03-27T09:52:38.999Z,95.51
2023-03-27T09:55:57.333Z,93.76
2023-03-27T09:59:43.654Z,94.88
2023-03-27T10:03:10.505Z,94.89
2023-03-27T10:06:36.293Z,94.43
2023-03-27T10:10:35.356Z,94.91
2023-03-27T10:13:52.246Z,94.18
2023-03-27T10:17:31.129Z,95.14
2023-03-27T10:20:52.039Z,93.47
2023-03-27T10:27:51.411Z,94.47
2023-03-27T10:31:31.140Z,95.58
2023-03-27T10:34:58.790Z,94.95
2023-03-27T10:39:01.052Z,95.46
2023-03-27T10:42:21.933Z,95.09
2023-03-27T10:45:42.235Z,93.91
2023-03-27T10:49:18.095Z,95.21
2023-03-27T10:52:58.699Z,95.04
2023-03-27T10:56:34.247Z,95.39
2023-03-27T11:00:19.658Z,94.23
2023-03-27T11:07:49.577Z,96.75
2023-03-27T11:11:14.525Z,95.33
2023-03-27T11:14:50.706Z,96.06
2023-03-27T11:18:12.675Z,95.60
2023-03-27T11:25:20.956Z,94.25
2023-03-27T11:28:55.735Z,94.24
2023-03-27T11:32:22.804Z,93.85
2023-03-27T11:35:48.225Z,92.24
2023-03-27T11:39:20.146Z,93.40
2023-03-27T11:42:37.335Z,92.50
2023-03-27T11:46:08.677Z,93.93
2023-03-27T11:49:36.436Z,92.46
2023-03-27T11:53:08.329Z,93.68
2023-03-27T11:56:34.193Z,94.37
2023-03-27T12:00:15.009Z,94.18
2023-03-27T12:04:13.812Z,94.41
2023-03-27T12:11:26.516Z,93.17
2023-03-27T12:15:01.218Z,93.15
2023-03-27T12:18:36.398Z,93.87
2023-03-27T12:26:05.545Z,93.79
2023-03-27T12:30:04.558Z,93.70
2023-03-27T12:37:24.870Z,95.40
2023-03-27T12:40:50.065Z,94.34
2023-03-27T12:44:33.548Z,93.94
2023-03-27T12:47:53.324Z,94.74
2023-03-27T12:51:16.999Z,94.83
2023-03-27T12:54:32.001Z,93.96
2023-03-27T12:57:47.012Z,94.21
2023-03-27T13:01:20.452Z,93.94
2023-03-27T13:04:57.062Z,94.06
2023-03-27T13:13:02.606Z,94.22
2023-03-27T13:16:28.344Z,94.79
2023-03-27T13:19:50.394Z,93.47
2023-03-27T13:23:41.015Z,93.40
2023-03-27T13:30:50.286Z,91.98
2023-03-27T13:34:44.335Z,90.87
2023-03-27T13:38:17.705Z,89.38
2023-03-27T13:41:48.693Z,89.03
2023-03-27T13:45:29.524Z,87.91
2023-03-27T13:49:22.290Z,86.96
2023-03-27T13:53:13.434Z,87.28
2023-03-27T13:56:50.668Z,85.53
2023-03-27T14:04:53.431Z,84.08
2023-03-27T14:08:18.261Z,83.22
2023-03-27T14:11:39.274Z,84.41
2023-03-27T14:15:10.719Z,82.91
2023-03-27T14:18:37.679Z,83.49
2023-03-27T14:21:53.683Z,81.86
2023-03-27T14:25:12.990Z,81.64
2023-03-27T14:28:29.914Z,81.33
2023-03-27T14:31:44.726Z,81.15
2023-03-27T14:35:04.687Z,81.91
2023-03-27T14:38:23.033Z,81.23
2023-03-27T14:41:47.696Z,80.62
2023-03-27T14:45:18.113Z,78.96
2023-03-27T14:48:33.414Z,79.71
2023-03-27T14:51:48.297Z,79.58
2023-03-27T14:55:02.549Z,80.28
2023-03-27T14:58:19.407Z,82.17
2023-03-27T15:01:35.487Z,79.31
2023-03-27T15:04:50.358Z,77.80
2023-03-27T15:08:04.646Z,79.35
2023-03-27T15:11:20.981Z,78.24
2023-03-27T15:14:36.662Z,77.38
2023-03-27T15:17:54.894Z,77.73
2023-03-27T15:21:11.640Z,74.83
2023-03-27T15:24:31.383Z,74.45
2023-03-27T15:27:48.434Z,73.15
